Time;durP1;ratioP1;P1;durP2;ratioP2;P2;SDS_P1;SDS_P2;PMS_P1;PMS_P2;Temp;Humidity;BMP_temperature;BMP_pressure;BME280_temperature;BME280_humidity;BME280_pressure;Samples;Min_cycle;Max_cycle;Signal;HPM_P1;HPM_P2
2021/01/27 00:00:43;;;;;;;18.25;7.03;;;;;;;-3.36;80.07;97111.63;5081950;28;20050;-63
2021/01/27 00:03:09;;;;;;;13.40;6.40;;;;;;;-3.40;79.08;97114.03;5078776;27;20040;-63
2021/01/27 00:05:37;;;;;;;11.23;6.18;;;;;;;-3.54;79.48;97104.94;5081872;28;20069;-62
2021/01/27 00:08:03;;;;;;;12.52;5.85;;;;;;;-3.71;80.24;97114.00;5082451;28;20116;-65
2021/01/27 00:10:30;;;;;;;14.75;7.07;;;;;;;-3.73;80.43;97118.78;5083648;28;20503;-62
2021/01/27 00:12:56;;;;;;;13.32;7.20;;;;;;;-3.75;81.14;97106.75;5090180;28;20038;-63
2021/01/27 00:15:34;;;;;;;16.85;7.18;;;;;;;-3.79;nan;97106.47;5078564;28;20047;-64
2021/01/27 00:18:00;;;;;;;14.15;6.80;;;;;;;-3.81;80.61;97100.59;5076515;28;20044;-61
2021/01/27 00:20:26;;;;;;;13.50;6.93;;;;;;;-3.75;80.58;97085.34;5076985;27;20058;-61
2021/01/27 00:22:52;;;;;;;12.00;6.30;;;;;;;-3.79;80.42;97066.31;5079242;28;20117;-60
2021/01/27 00:25:22;;;;;;;11.65;5.78;;;;;;;-3.80;80.50;97077.28;5078179;28;20048;-62
2021/01/27 00:27:48;;;;;;;10.05;5.07;;;;;;;-3.77;80.20;97079.44;5082548;28;20028;-61
2021/01/27 00:30:22;;;;;;;8.13;4.70;;;;;;;-3.80;80.00;97082.63;5077117;28;20144;-64
2021/01/27 00:32:48;;;;;;;8.27;4.85;;;;;;;-3.79;79.92;97082.38;5079969;28;20036;-61
2021/01/27 00:35:16;;;;;;;16.08;7.60;;;;;;;-3.75;80.74;97088.81;5088474;28;20052;-64
2021/01/27 00:37:41;;;;;;;18.35;9.98;;;;;;;-3.65;81.20;97086.16;5088916;28;20336;-59
2021/01/27 00:40:07;;;;;;;15.45;7.53;;;;;;;-3.55;81.09;97089.91;5074913;28;20040;-61
2021/01/27 00:42:34;;;;;;;18.83;7.43;;;;;;;-3.49;80.17;97088.88;5081630;28;20044;-63
2021/01/27 00:44:59;;;;;;;16.45;7.15;;;;;;;-3.71;80.70;97081.88;5081991;28;20382;-64
2021/01/27 00:47:24;;;;;;;19.73;8.63;;;;;;;-4.18;82.09;97080.13;5076137;28;20048;-62
2021/01/27 00:49:50;;;;;;;11.30;6.75;;;;;;;-4.58;83.86;97078.88;5081479;28;20040;-62
2021/01/27 00:52:15;;;;;;;14.32;5.47;;;;;;;-4.69;84.01;97071.88;5076504;28;20059;-60
2021/01/27 00:54:41;;;;;;;14.02;5.78;;;;;;;-4.57;84.14;97059.13;5081664;28;20112;-59
2021/01/27 00:57:06;;;;;;;11.48;5.63;;;;;;;-4.41;83.22;97062.66;5076407;28;20110;-63
2021/01/27 00:59:31;;;;;;;15.32;6.22;;;;;;;-4.28;82.47;97061.38;5082602;27;20526;-61
2021/01/27 01:01:57;;;;;;;11.57;5.68;;;;;;;-4.23;82.24;97059.53;5080561;28;20036;-62
2021/01/27 01:04:22;;;;;;;11.10;5.60;;;;;;;-4.23;81.70;97046.16;5076363;28;20480;-61
2021/01/27 01:06:47;;;;;;;12.65;6.00;;;;;;;-4.24;81.44;97055.22;5081611;28;20047;-61
2021/01/27 01:09:13;;;;;;;7.97;4.72;;;;;;;-4.27;81.30;97060.28;5076120;28;20104;-63
2021/01/27 01:11:38;;;;;;;9.13;5.78;;;;;;;-4.34;82.21;97051.72;5078513;28;20047;-61
2021/01/27 01:14:04;;;;;;;12.52;5.35;;;;;;;-4.39;82.41;97046.34;5068116;28;20097;-66
2021/01/27 01:16:29;;;;;;;8.25;5.00;;;;;;;-4.34;81.93;97035.66;5080007;28;20123;-63
2021/01/27 01:18:54;;;;;;;9.98;4.80;;;;;;;-4.31;82.27;97032.47;5081712;28;20593;-63
2021/01/27 01:21:20;;;;;;;10.02;5.13;;;;;;;-4.34;82.35;97024.97;5075538;28;20032;-61
2021/01/27 01:23:45;;;;;;;11.00;5.30;;;;;;;-4.32;81.62;97023.66;5081211;28;20070;-60
2021/01/27 01:26:11;;;;;;;8.70;4.68;;;;;;;-4.30;81.29;97018.06;5076179;28;20044;-61
2021/01/27 01:28:36;;;;;;;8.60;5.15;;;;;;;-4.30;81.73;97032.22;5075146;28;20039;-60
2021/01/27 01:31:02;;;;;;;8.43;5.13;;;;;;;-4.29;81.79;97030.34;5080856;28;20175;-66
2021/01/27 01:33:30;;;;;;;7.35;4.90;;;;;;;-4.28;81.93;97022.06;5079946;28;20047;-63
2021/01/27 01:35:57;;;;;;;9.73;4.75;;;;;;;-4.25;81.44;97021.53;5069256;28;20044;-63
2021/01/27 01:38:23;;;;;;;8.73;4.40;;;;;;;-4.19;80.67;97014.34;5065766;28;20070;-63
2021/01/27 01:40:55;;;;;;;7.00;3.90;;;;;;;-4.15;80.95;97004.69;5077361;28;20078;-62
2021/01/27 01:43:25;;;;;;;7.95;4.47;;;;;;;-4.14;80.53;97013.53;5075056;28;20051;-62
2021/01/27 01:45:57;;;;;;;7.65;4.15;;;;;;;-4.14;80.38;97002.81;5080495;28;20036;-61
2021/01/27 01:48:28;;;;;;;8.25;4.90;;;;;;;-4.09;81.05;97002.84;5076644;28;20609;-61
2021/01/27 01:51:02;;;;;;;7.15;3.95;;;;;;;-4.07;80.56;97006.03;5081290;28;20040;-62
2021/01/27 01:53:28;;;;;;;9.00;4.28;;;;;;;-4.02;80.90;96998.03;5077973;28;20056;-59
2021/01/27 01:55:58;;;;;;;7.38;4.18;;;;;;;-3.99;80.26;96992.16;5081118;28;20515;-62
2021/01/27 01:58:23;;;;;;;11.10;4.88;;;;;;;-3.99;80.26;96978.00;5072793;28;20058;-61
2021/01/27 02:00:52;;;;;;;9.45;4.47;;;;;;;-4.00;80.25;96966.47;5079135;28;20032;-58
2021/01/27 02:03:17;;;;;;;7.55;3.55;;;;;;;-4.03;80.53;96965.13;5075425;28;20040;-62
2021/01/27 02:05:44;;;;;;;6.97;4.20;;;;;;;-4.00;79.97;96971.81;5076478;28;20042;-60
2021/01/27 02:08:10;;;;;;;8.90;3.88;;;;;;;-3.92;79.38;96967.81;5075564;28;20542;-60
2021/01/27 02:10:36;;;;;;;5.88;3.60;;;;;;;-3.91;79.69;96964.84;5080816;28;20036;-60
2021/01/27 02:13:27;;;;;;;6.20;4.20;;;;;;;-3.85;79.10;96963.81;5072054;28;20508;-58
2021/01/27 02:16:17;;;;;;;6.82;3.90;;;;;;;-3.93;79.12;96961.66;5065872;28;20470;-62
2021/01/27 02:19:01;;;;;;;5.72;4.18;;;;;;;-4.01;80.00;96958.72;5080381;28;20063;-60
2021/01/27 02:21:26;;;;;;;8.45;4.22;;;;;;;-4.01;80.29;96956.84;5075680;28;20464;-60
2021/01/27 02:24:19;;;;;;;6.72;3.75;;;;;;;-3.90;80.49;96949.63;5081308;28;20108;-58
2021/01/27 02:27:14;;;;;;;7.90;4.07;;;;;;;-3.76;80.42;96941.84;5080260;27;20043;-63
2021/01/27 02:30:22;;;;;;;6.22;3.92;;;;;;;-3.65;80.43;96924.72;5062851;28;20127;-61
2021/01/27 02:33:19;;;;;;;6.88;4.18;;;;;;;-3.58;80.66;96919.91;5079560;28;20040;-61
2021/01/27 02:36:06;;;;;;;5.72;3.42;;;;;;;-3.49;79.79;96923.63;5070555;28;20039;-59
2021/01/27 02:38:49;;;;;;;6.47;3.33;;;;;;;-3.42;79.62;96920.69;5059926;28;20097;-62
2021/01/27 02:41:35;;;;;;;6.45;3.38;;;;;;;-3.35;79.51;96921.22;5036251;28;20048;-61
2021/01/27 02:44:06;;;;;;;10.35;3.78;;;;;;;-3.17;78.20;96919.81;5040919;28;20486;-60
2021/01/27 02:46:47;;;;;;;8.25;3.60;;;;;;;-3.20;78.25;96917.69;5040846;28;20041;-61
2021/01/27 02:49:45;;;;;;;5.75;3.70;;;;;;;-3.13;77.90;96920.06;5051947;28;20123;-61
2021/01/27 02:52:19;;;;;;;5.50;3.80;;;;;;;-3.07;77.75;96913.63;5067550;22;20060;-67
2021/01/27 02:54:59;;;;;;;10.40;4.10;;;;;;;-3.15;77.61;96912.31;5025903;28;20040;-65
2021/01/27 02:57:30;;;;;;;7.28;4.13;;;;;;;-3.18;78.17;96917.41;5030435;28;20519;-66
2021/01/27 03:00:04;;;;;;;9.25;4.43;;;;;;;-3.16;78.02;96915.25;5055348;28;20037;-65
2021/01/27 03:02:39;;;;;;;7.95;3.60;;;;;;;-3.15;77.58;96904.28;5039421;28;20041;-67
2021/01/27 03:05:13;;;;;;;7.30;4.07;;;;;;;-3.14;77.29;96903.19;5038878;28;20037;-69
2021/01/27 03:07:40;;;;;;;7.00;4.13;;;;;;;-3.19;77.54;96892.47;5039835;28;20056;-68
2021/01/27 03:10:13;;;;;;;6.40;3.45;;;;;;;-3.27;78.20;96888.50;5035043;28;20491;-68
2021/01/27 03:12:39;;;;;;;6.35;4.15;;;;;;;-3.34;78.23;96881.81;5040996;28;20178;-66
2021/01/27 03:15:07;;;;;;;7.25;4.30;;;;;;;-3.43;78.33;96873.53;5039651;28;20514;-70
2021/01/27 03:17:33;;;;;;;7.93;3.83;;;;;;;-3.47;79.00;96870.59;5041123;28;20136;-66
2021/01/27 03:20:06;;;;;;;8.20;4.28;;;;;;;-3.46;79.16;96880.25;5044413;28;20033;-64
2021/01/27 03:22:42;;;;;;;5.53;3.67;;;;;;;-3.50;79.04;96876.50;5041413;28;20051;-65
2021/01/27 03:25:15;;;;;;;6.53;3.67;;;;;;;-3.63;78.76;96869.03;5038832;28;20218;-67
2021/01/27 03:27:51;;;;;;;7.55;3.47;;;;;;;-3.65;79.34;96877.34;5042452;28;20040;-65
2021/01/27 03:30:17;;;;;;;6.80;4.03;;;;;;;-3.56;79.02;96874.91;5044110;28;20140;-65
2021/01/27 03:33:04;;;;;;;7.75;4.32;;;;;;;-3.59;79.02;96870.09;5051542;28;20060;-65
2021/01/27 03:35:38;;;;;;;8.43;4.78;;;;;;;-3.71;79.39;96881.09;5045268;28;20037;-65
2021/01/27 03:38:23;;;;;;;11.55;4.43;;;;;;;-3.74;79.58;96881.63;5039894;28;20040;-69
2021/01/27 03:40:52;;;;;;;5.68;4.03;;;;;;;-3.79;79.56;96880.84;5043172;28;20041;-65
2021/01/27 03:43:26;;;;;;;9.23;3.70;;;;;;;-3.84;80.11;96882.44;5038595;28;20033;-65
2021/01/27 03:46:11;;;;;;;5.57;4.40;;;;;;;-3.82;80.34;96881.38;5042199;28;20037;-64
2021/01/27 03:48:42;;;;;;;5.57;4.15;;;;;;;-3.83;80.48;96891.28;5042718;28;20041;-66
2021/01/27 03:51:10;;;;;;;8.38;4.55;;;;;;;-3.86;80.04;96889.94;5037244;28;20052;-65
2021/01/27 03:53:36;;;;;;;8.55;5.43;;;;;;;-3.92;79.95;96884.88;5043040;28;20035;-64
2021/01/27 03:56:31;;;;;;;7.28;4.65;;;;;;;-3.99;80.03;96893.16;5044027;28;20131;-65
2021/01/27 03:58:57;;;;;;;9.10;4.45;;;;;;;-3.88;79.90;96896.63;5042859;28;20048;-65
2021/01/27 04:01:23;;;;;;;10.65;4.70;;;;;;;-3.80;79.65;96892.59;5038340;28;20485;-64
2021/01/27 04:03:53;;;;;;;8.00;4.93;;;;;;;-3.86;79.37;96884.56;5041932;28;20036;-65
2021/01/27 04:06:19;;;;;;;9.43;4.15;;;;;;;-3.91;79.49;96883.78;5035601;28;20044;-65
2021/01/27 04:08:44;;;;;;;8.77;4.80;;;;;;;-3.98;79.83;96886.75;5040047;28;20045;-65
2021/01/27 04:11:10;;;;;;;10.25;4.60;;;;;;;-3.90;80.02;96886.19;5036918;28;20535;-64
2021/01/27 04:13:37;;;;;;;8.65;4.57;;;;;;;-3.84;79.57;96895.03;5042204;28;20041;-65
2021/01/27 04:16:04;;;;;;;7.68;4.60;;;;;;;-3.85;79.30;96904.94;5039267;28;20041;-70
2021/01/27 04:18:30;;;;;;;14.68;5.55;;;;;;;-3.86;79.83;96895.28;5039698;28;20053;-68
2021/01/27 04:20:56;;;;;;;11.52;4.55;;;;;;;-3.87;80.24;96892.88;5039301;28;20124;-68
2021/01/27 04:23:22;;;;;;;7.53;5.10;;;;;;;-3.87;79.73;96893.69;5035953;28;20037;-66
2021/01/27 04:25:48;;;;;;;12.63;5.68;;;;;;;-3.90;79.89;96891.56;5041117;28;20559;-68
2021/01/27 04:28:13;;;;;;;8.63;5.22;;;;;;;-3.91;79.75;96886.47;5033699;28;20041;-67
2021/01/27 04:30:39;;;;;;;13.10;5.70;;;;;;;-4.06;79.95;96881.94;5036141;28;20121;-67
2021/01/27 04:33:08;;;;;;;11.55;5.47;;;;;;;-4.17;80.58;96878.44;5036259;28;20184;-68
2021/01/27 04:35:34;;;;;;;11.38;5.88;;;;;;;-4.19;81.46;96866.44;5043654;28;20037;-65
2021/01/27 04:38:00;;;;;;;9.70;5.82;;;;;;;-4.23;81.19;96861.59;5037197;28;20039;-66
2021/01/27 04:40:30;;;;;;;9.80;5.47;;;;;;;-4.14;81.28;96864.53;5018603;28;20049;-67
2021/01/27 04:42:56;;;;;;;10.20;5.45;;;;;;;-4.01;80.97;96867.75;5030650;28;20555;-65
2021/01/27 04:45:22;;;;;;;11.48;6.00;;;;;;;-3.93;80.75;96859.97;5030562;28;20049;-66
2021/01/27 04:47:50;;;;;;;11.18;6.72;;;;;;;-4.00;79.59;96856.75;5031534;28;20045;-66
2021/01/27 04:50:42;;;;;;;15.30;6.93;;;;;;;-4.25;80.19;96850.38;5031295;28;20044;-67
2021/01/27 04:53:16;;;;;;;15.70;7.63;;;;;;;-4.17;80.68;96858.94;5029326;28;20128;-66
2021/01/27 04:56:01;;;;;;;18.33;7.38;;;;;;;-4.08;80.35;96849.28;5031232;28;20131;-68
2021/01/27 04:58:33;;;;;;;13.82;6.50;;;;;;;-4.02;80.70;96845.53;5034502;28;20057;-68
2021/01/27 05:01:07;;;;;;;13.18;7.15;;;;;;;-3.99;80.42;96844.22;5041870;28;20037;-69
2021/01/27 05:04:00;;;;;;;18.48;7.85;;;;;;;-4.02;80.65;96842.84;5038893;28;20511;-66
2021/01/27 05:06:31;;;;;;;10.75;6.10;;;;;;;-3.94;80.14;96836.97;5037224;28;20045;-66
2021/01/27 05:09:10;;;;;;;14.65;6.93;;;;;;;-4.13;80.33;96833.25;5041718;28;20379;-66
2021/01/27 05:11:36;;;;;;;13.45;6.78;;;;;;;-4.13;80.91;96827.88;5040039;28;20048;-65
2021/01/27 05:14:03;;;;;;;16.65;7.55;;;;;;;-4.15;80.89;96828.16;5053051;28;20044;-68
2021/01/27 05:16:31;;;;;;;19.35;7.82;;;;;;;-4.15;81.03;96828.16;5038491;28;20114;-65
2021/01/27 05:19:00;;;;;;;20.00;8.27;;;;;;;-4.08;81.31;96828.69;5043141;28;20079;-65
2021/01/27 05:21:30;;;;;;;16.02;7.28;;;;;;;-3.95;81.02;96832.69;5054871;28;20032;-65
2021/01/27 05:23:55;;;;;;;12.77;6.10;;;;;;;-3.92;80.97;96831.34;5061323;28;20536;-65
2021/01/27 05:26:26;;;;;;;13.52;5.70;;;;;;;-3.86;80.53;96827.59;5056707;28;20040;-66
2021/01/27 05:29:02;;;;;;;13.75;5.70;;;;;;;-3.77;80.47;96825.16;5057231;28;20041;-65
2021/01/27 05:32:01;;;;;;;10.45;5.72;;;;;;;-3.81;80.23;96821.44;5057499;28;20044;-66
2021/01/27 05:34:35;;;;;;;9.65;5.72;;;;;;;-3.89;80.17;96818.25;5051049;28;20036;-65
2021/01/27 05:37:03;;;;;;;10.98;5.88;;;;;;;-3.96;80.71;96804.34;5061663;28;20082;-66
2021/01/27 05:39:30;;;;;;;11.00;5.95;;;;;;;-4.01;81.38;96793.63;5058604;28;20157;-66
2021/01/27 05:42:10;;;;;;;12.10;6.07;;;;;;;-4.07;81.19;96787.50;5061111;28;20489;-66
2021/01/27 05:44:36;;;;;;;10.70;5.78;;;;;;;-4.11;81.56;96799.00;5040567;28;20382;-65
2021/01/27 05:47:35;;;;;;;10.02;5.53;;;;;;;-4.03;82.08;96801.94;5040641;28;20041;-70
2021/01/27 05:50:15;;;;;;;10.85;5.35;;;;;;;-3.87;81.13;96808.06;5037926;28;20170;-68
2021/01/27 05:52:41;;;;;;;;;;;;;;;-3.83;80.65;96811.00;5050249;28;20049;-69
2021/01/27 05:55:08;;;;;;;7.43;5.10;;;;;;;-3.84;80.49;96806.69;5041119;28;19921;-70
2021/01/27 05:57:33;;;;;;;10.83;5.57;;;;;;;-3.78;80.40;96810.16;5041326;28;20041;-67
2021/01/27 06:00:28;;;;;;;12.85;5.88;;;;;;;-3.92;80.76;96813.41;5041105;28;20419;-67
2021/01/27 06:02:55;;;;;;;10.95;6.32;;;;;;;-3.93;81.16;96813.69;5035923;28;20048;-66
2021/01/27 06:05:37;;;;;;;11.30;6.45;;;;;;;-3.91;81.36;96809.66;5041866;28;20040;-68
2021/01/27 06:08:12;;;;;;;13.20;6.13;;;;;;;-3.92;81.46;96802.72;5057112;28;20032;-70
2021/01/27 06:10:38;;;;;;;16.05;6.80;;;;;;;-3.86;81.65;96800.81;5056229;28;20132;-66
2021/01/27 06:13:26;;;;;;;12.00;5.80;;;;;;;-3.86;81.47;96796.25;5055748;28;20123;-70
2021/01/27 06:15:52;;;;;;;10.77;6.22;;;;;;;-4.18;82.05;96795.78;5057930;28;20048;-66
2021/01/27 06:18:20;;;;;;;13.02;5.88;;;;;;;-4.20;82.90;96797.94;5058607;28;20052;-68
2021/01/27 06:20:46;;;;;;;12.95;6.10;;;;;;;-4.06;82.85;96797.09;5062285;28;20083;-66
2021/01/27 06:23:11;;;;;;;13.95;7.20;;;;;;;-4.21;82.73;96797.16;5051590;28;20044;-69
2021/01/27 06:25:45;;;;;;;17.88;7.07;;;;;;;-4.44;83.47;96780.56;5055228;28;20047;-65
2021/01/27 06:29:07;;;;;;;11.75;6.55;;;;;;;-4.56;84.17;96784.56;5048065;28;20041;-65
2021/01/27 06:32:00;;;;;;;13.30;6.53;;;;;;;-4.32;83.97;96780.31;4996489;28;20038;-66
2021/01/27 06:34:48;;;;;;;10.90;6.40;;;;;;;-4.13;83.92;96780.53;4990361;28;20038;-66
2021/01/27 06:37:29;;;;;;;13.25;6.88;;;;;;;-4.07;83.15;96766.09;5041371;28;20037;-68
2021/01/27 06:40:31;;;;;;;16.15;6.82;;;;;;;-4.01;82.85;96774.13;5060337;28;20041;-65
2021/01/27 06:43:15;;;;;;;14.07;6.47;;;;;;;-3.94;83.00;96782.66;5039783;28;20509;-66
2021/01/27 06:46:12;;;;;;;8.63;5.47;;;;;;;-3.86;82.25;96768.72;5037709;28;20033;-67
2021/01/27 06:49:15;;;;;;;13.73;6.38;;;;;;;-3.81;83.62;96786.63;5060178;28;20036;-68
2021/01/27 06:52:02;;;;;;;13.60;6.32;;;;;;;-3.90;83.39;96784.50;5059446;28;20045;-67
2021/01/27 06:54:39;;;;;;;8.77;5.85;;;;;;;-3.89;82.60;96778.09;5055282;28;20037;-66
2021/01/27 06:57:24;;;;;;;11.02;6.38;;;;;;;-3.80;82.81;96789.03;5052364;28;20045;-70
2021/01/27 07:00:03;;;;;;;11.63;6.47;;;;;;;-3.68;82.40;96773.47;5051034;28;20068;-68
2021/01/27 07:02:37;;;;;;;14.45;6.68;;;;;;;-4.14;82.91;96756.72;5045453;28;20056;-67
2021/01/27 07:05:14;;;;;;;14.25;6.45;;;;;;;-4.63;85.32;96742.91;5038052;28;20943;-69
2021/01/27 07:07:40;;;;;;;12.73;7.35;;;;;;;-4.77;85.99;96752.50;5044798;28;20045;-66
2021/01/27 07:10:24;;;;;;;14.10;6.43;;;;;;;-4.72;85.59;96749.03;5055794;28;20456;-68
2021/01/27 07:13:10;;;;;;;13.45;5.43;;;;;;;-4.51;85.53;96750.63;5057740;28;20041;-66
2021/01/27 07:16:01;;;;;;;10.65;6.05;;;;;;;-4.18;84.85;96753.00;5030460;28;20556;-66
2021/01/27 07:18:52;;;;;;;12.10;6.30;;;;;;;-3.86;84.73;96750.78;5049383;28;20044;-65
2021/01/27 07:21:28;;;;;;;11.10;6.53;;;;;;;-3.68;83.52;96757.41;5053539;28;20389;-66
2021/01/27 07:24:02;;;;;;;14.75;6.22;;;;;;;-3.62;82.90;96768.09;5037826;28;20058;-67
2021/01/27 07:26:30;;;;;;;12.70;6.03;;;;;;;-3.68;82.61;96756.59;5056476;28;20036;-65
2021/01/27 07:29:01;;;;;;;10.02;6.15;;;;;;;-3.54;82.57;96749.59;5053975;28;20592;-67
2021/01/27 07:31:34;;;;;;;12.32;5.97;;;;;;;-3.46;81.64;96750.91;5052308;28;20045;-67
2021/01/27 07:34:06;;;;;;;15.15;7.28;;;;;;;-3.46;81.61;96759.75;5052465;28;20056;-68
2021/01/27 07:36:53;;;;;;;9.52;6.05;;;;;;;-3.26;81.38;96768.75;5054482;28;20037;-67
2021/01/27 07:39:35;;;;;;;8.95;5.55;;;;;;;-3.05;80.46;96765.97;5051206;28;20049;-69
2021/01/27 07:42:17;;;;;;;11.23;5.35;;;;;;;-3.00;79.83;96769.41;5065252;28;20063;-66
2021/01/27 07:44:47;;;;;;;8.15;5.10;;;;;;;-3.03;79.56;96779.88;5059645;28;20048;-68
2021/01/27 07:47:27;;;;;;;10.88;5.57;;;;;;;-3.12;80.35;96793.06;5055379;28;20043;-67
2021/01/27 07:49:58;;;;;;;10.70;5.55;;;;;;;-3.18;79.80;96788.81;5053226;28;20382;-67
2021/01/27 07:52:33;;;;;;;11.52;5.65;;;;;;;-3.14;80.20;96789.84;5043131;28;20737;-65
2021/01/27 07:55:08;;;;;;;11.20;6.35;;;;;;;-3.02;80.12;96784.19;5058570;28;20044;-67
2021/01/27 07:57:57;;;;;;;10.90;5.45;;;;;;;-3.00;79.45;96774.78;5057935;28;20044;-67
2021/01/27 08:00:30;;;;;;;10.13;4.85;;;;;;;-2.98;79.13;96782.53;5036496;28;20413;-68
2021/01/27 08:03:15;;;;;;;13.43;7.20;;;;;;;-3.02;79.30;96787.66;5055777;28;20033;-66
2021/01/27 08:05:42;;;;;;;17.02;8.90;;;;;;;-3.27;80.80;96775.97;5044205;28;20047;-66
2021/01/27 08:08:15;;;;;;;16.52;8.63;;;;;;;-3.31;81.23;96779.50;5056817;28;20036;-67
2021/01/27 08:10:41;;;;;;;14.15;8.02;;;;;;;-3.29;81.40;96769.31;5057492;28;20040;-65
2021/01/27 08:13:16;;;;;;;15.10;8.95;;;;;;;-3.16;80.78;96762.53;5055171;28;20063;-66
2021/01/27 08:15:58;;;;;;;14.75;7.72;;;;;;;-3.10;80.77;96764.94;5062077;28;20079;-65
2021/01/27 08:18:24;;;;;;;16.85;8.60;;;;;;;-2.60;79.28;96766.72;5040158;28;20387;-64
2021/01/27 08:21:18;;;;;;;21.67;9.40;;;;;;;-2.55;78.46;96766.69;5055583;28;20512;-66
2021/01/27 08:23:46;;;;;;;12.55;7.60;;;;;;;-2.57;78.52;96764.28;5041236;28;20382;-69
2021/01/27 08:26:11;;;;;;;14.32;7.45;;;;;;;-2.43;77.96;96764.47;5032061;28;20410;-68
2021/01/27 08:28:37;;;;;;;13.23;9.38;;;;;;;-2.99;80.43;96772.88;5040594;28;20041;-66
2021/01/27 08:31:09;;;;;;;13.88;6.72;;;;;;;-3.23;81.07;96764.72;5037496;28;20063;-70
2021/01/27 08:33:46;;;;;;;11.77;7.13;;;;;;;-3.39;82.23;96764.78;5036575;28;20049;-66
2021/01/27 08:36:14;;;;;;;10.60;6.93;;;;;;;-3.25;82.59;96775.72;5030521;28;20048;-67
2021/01/27 08:38:44;;;;;;;12.05;6.15;;;;;;;-2.75;80.04;96773.00;5039824;28;20076;-65
2021/01/27 08:41:30;;;;;;;;;;;;;;;-2.49;78.78;96778.97;5032014;28;20509;-66
2021/01/27 08:43:56;;;;;;;9.60;5.82;;;;;;;-2.26;77.87;96777.44;5041321;28;20292;-67
2021/01/27 08:46:50;;;;;;;12.32;7.03;;;;;;;-2.09;77.00;96785.06;5032871;28;20053;-66
2021/01/27 08:49:35;;;;;;;11.68;5.68;;;;;;;-1.97;77.30;96788.19;5021349;28;20033;-67
2021/01/27 08:52:22;;;;;;;13.40;6.30;;;;;;;-1.76;76.98;96788.78;5032179;28;20045;-67
2021/01/27 08:54:51;;;;;;;12.90;6.22;;;;;;;-1.39;75.18;96781.94;5052098;28;20513;-67
2021/01/27 08:57:25;;;;;;;11.85;6.10;;;;;;;-1.29;74.72;96780.22;5044420;28;20416;-67
2021/01/27 08:59:53;;;;;;;7.22;3.80;;;;;;;-1.14;73.81;96785.38;5060052;28;20082;-66
2021/01/27 09:02:43;;;;;;;6.75;3.92;;;;;;;-1.50;75.54;96777.75;5053833;28;20131;-66
2021/01/27 09:05:34;;;;;;;5.60;2.67;;;;;;;-1.42;75.37;96779.81;5048105;28;20045;-66
2021/01/27 09:08:27;;;;;;;3.70;2.70;;;;;;;-1.33;75.67;96779.97;5055569;28;20556;-66
2021/01/27 09:10:57;;;;;;;6.07;2.60;;;;;;;-1.44;77.96;96787.38;5058597;28;20119;-68
2021/01/27 09:13:42;;;;;;;3.30;2.42;;;;;;;-1.38;78.38;96794.28;5044356;28;20053;-68
2021/01/27 09:16:19;;;;;;;5.85;2.30;;;;;;;-1.60;81.06;96792.09;5035934;28;20040;-69
2021/01/27 09:19:15;;;;;;;3.60;2.30;;;;;;;-1.66;82.89;96808.56;5033566;28;20060;-70
2021/01/27 09:21:42;;;;;;;3.72;2.33;;;;;;;-1.83;84.60;96801.75;5020088;28;20041;-68
2021/01/27 09:24:37;;;;;;;4.47;2.97;;;;;;;-1.95;86.27;96810.16;5013913;28;20053;-66
2021/01/27 09:27:18;;;;;;;6.35;2.55;;;;;;;-1.94;87.17;96811.78;5018038;28;20037;-69
2021/01/27 09:29:44;;;;;;;7.03;2.97;;;;;;;-1.87;87.53;96806.09;5043045;28;20071;-68
2021/01/27 09:32:14;;;;;;;6.30;2.90;;;;;;;-1.85;88.30;96811.97;5068486;28;20044;-67
2021/01/27 09:34:39;;;;;;;7.90;3.83;;;;;;;-1.71;87.82;96812.09;5061885;28;20040;-66
2021/01/27 09:37:08;;;;;;;7.13;2.80;;;;;;;-1.89;88.41;96807.44;5053439;28;20133;-70
2021/01/27 09:39:37;;;;;;;6.18;2.92;;;;;;;-1.93;88.98;96805.34;5057861;28;20181;-66
2021/01/27 09:42:29;;;;;;;5.47;3.35;;;;;;;-1.96;89.65;96810.47;5055049;28;20417;-69
2021/01/27 09:44:59;;;;;;;7.00;3.97;;;;;;;-1.97;89.88;96816.91;5058165;28;20041;-67
2021/01/27 09:47:26;;;;;;;6.25;3.25;;;;;;;-1.95;90.08;96806.69;5038968;28;20048;-69
2021/01/27 09:49:54;;;;;;;6.25;3.38;;;;;;;-1.91;90.61;96799.66;5044448;28;20102;-66
2021/01/27 09:52:22;;;;;;;4.50;3.13;;;;;;;-1.73;90.17;96796.28;5033321;28;20454;-66
2021/01/27 09:54:51;;;;;;;5.18;3.03;;;;;;;-1.60;89.33;96796.69;5040980;28;20041;-68
2021/01/27 09:57:20;;;;;;;5.63;3.42;;;;;;;-1.49;89.69;96795.47;5053639;28;20199;-66
2021/01/27 09:59:55;;;;;;;5.47;3.17;;;;;;;-1.54;89.60;96792.84;5044978;28;20064;-65
2021/01/27 10:02:29;;;;;;;6.55;2.78;;;;;;;-1.41;89.23;96788.66;5038433;28;20505;-64
2021/01/27 10:04:55;;;;;;;6.25;3.28;;;;;;;-1.18;88.37;96790.53;5058116;28;20040;-65
2021/01/27 10:07:20;;;;;;;4.95;2.72;;;;;;;-0.97;87.39;96774.16;5053499;28;20358;-65
2021/01/27 10:10:05;;;;;;;6.82;3.67;;;;;;;-0.82;85.96;96762.38;5059790;28;20029;-65
2021/01/27 10:12:32;;;;;;;14.23;5.93;;;;;;;-0.66;85.94;96769.13;5056307;28;20064;-66
2021/01/27 10:15:25;;;;;;;4.55;3.00;;;;;;;-0.71;84.98;96768.41;5059598;28;20051;-67
2021/01/27 10:18:03;;;;;;;5.15;3.08;;;;;;;-0.51;86.19;96773.44;5059611;28;20040;-66
2021/01/27 10:20:33;;;;;;;3.75;2.80;;;;;;;-0.59;85.76;96766.84;5059009;28;20048;-67
2021/01/27 10:23:06;;;;;;;4.70;2.60;;;;;;;-0.64;85.34;96763.44;5053615;28;20101;-67
2021/01/27 10:25:38;;;;;;;6.25;2.70;;;;;;;-0.69;85.51;96768.91;5049799;28;20049;-66
2021/01/27 10:28:10;;;;;;;3.42;2.53;;;;;;;-0.81;86.02;96762.09;5039320;28;20171;-70
2021/01/27 10:30:47;;;;;;;5.00;2.88;;;;;;;-0.86;86.47;96759.47;5040124;28;20032;-67
2021/01/27 10:33:37;;;;;;;6.55;3.67;;;;;;;-0.77;86.82;96771.16;5035647;28;20041;-68
2021/01/27 10:36:25;;;;;;;6.22;3.70;;;;;;;-0.96;87.28;96771.13;5056932;28;20044;-70
2021/01/27 10:39:20;;;;;;;5.47;3.42;;;;;;;-1.10;88.45;96777.53;5060205;28;20044;-68
2021/01/27 10:42:07;;;;;;;6.45;4.03;;;;;;;-0.97;87.93;96771.47;5058223;28;20090;-67
2021/01/27 10:44:35;;;;;;;4.93;3.28;;;;;;;-1.02;88.24;96772.31;5044324;28;20041;-68
2021/01/27 10:47:10;;;;;;;7.57;3.65;;;;;;;-1.00;89.10;96756.69;5051885;28;20040;-67
2021/01/27 10:49:40;;;;;;;22.08;9.90;;;;;;;-0.97;88.32;96761.50;5058109;28;20079;-65
2021/01/27 10:52:07;;;;;;;11.52;4.88;;;;;;;-0.93;88.38;96760.91;5051302;28;20416;-67
2021/01/27 10:54:34;;;;;;;4.38;3.05;;;;;;;-0.73;88.19;96759.81;5046976;28;20037;-68
2021/01/27 10:56:59;;;;;;;4.82;3.17;;;;;;;-0.95;88.19;96761.22;5057759;28;20501;-67
2021/01/27 10:59:25;;;;;;;4.13;2.95;;;;;;;-0.79;88.11;96767.16;5047474;28;20082;-69
2021/01/27 11:01:51;;;;;;;4.65;2.85;;;;;;;-0.80;87.45;96752.91;5058954;28;20571;-67
2021/01/27 11:04:16;;;;;;;5.97;3.17;;;;;;;-0.86;87.74;96761.34;5054120;28;20049;-69
2021/01/27 11:06:43;;;;;;;3.92;3.05;;;;;;;-0.87;88.52;96752.47;5060300;28;20036;-65
2021/01/27 11:09:09;;;;;;;6.30;3.30;;;;;;;-0.69;88.61;96744.69;5057179;28;20120;-66
2021/01/27 11:11:36;;;;;;;5.35;3.40;;;;;;;-0.29;86.94;96745.13;5051796;28;20040;-68
2021/01/27 11:14:06;;;;;;;4.32;3.35;;;;;;;-0.27;85.64;96751.81;5044748;28;20575;-67
2021/01/27 11:16:34;;;;;;;4.80;3.35;;;;;;;-0.40;86.25;96749.88;5016713;28;20114;-67
2021/01/27 11:18:59;;;;;;;6.72;3.35;;;;;;;-0.32;86.77;96743.81;5031696;28;20521;-67
2021/01/27 11:21:25;;;;;;;9.85;4.75;;;;;;;-0.28;87.06;96746.72;5024334;28;20041;-66
2021/01/27 11:23:52;;;;;;;9.70;4.85;;;;;;;-0.26;86.30;96742.63;5042976;28;20044;-67
2021/01/27 11:26:20;;;;;;;5.88;4.35;;;;;;;-0.04;85.90;96739.31;5034845;28;20043;-67
2021/01/27 11:28:48;;;;;;;5.53;3.70;;;;;;;0.04;85.84;96735.13;5043095;28;20037;-68
2021/01/27 11:31:14;;;;;;;8.38;4.00;;;;;;;0.11;85.00;96732.84;5032616;28;20056;-68
2021/01/27 11:33:40;;;;;;;5.70;2.80;;;;;;;0.20;85.02;96730.25;5044296;28;20481;-68
2021/01/27 11:36:06;;;;;;;3.72;2.85;;;;;;;0.02;85.25;96725.72;5037901;28;20120;-67
2021/01/27 11:38:31;;;;;;;4.95;2.80;;;;;;;-0.10;85.72;96720.84;5043514;28;20072;-66
2021/01/27 11:40:57;;;;;;;4.00;2.90;;;;;;;0.09;85.66;96724.28;5042531;28;20075;-67
2021/01/27 11:43:22;;;;;;;4.53;2.90;;;;;;;0.20;85.31;96714.09;5035291;28;20606;-67
2021/01/27 11:45:47;;;;;;;5.47;2.88;;;;;;;0.50;85.02;96709.97;5041170;28;20048;-69
2021/01/27 11:48:13;;;;;;;3.40;2.47;;;;;;;0.68;83.73;96707.47;5042485;28;20044;-66
2021/01/27 11:50:38;;;;;;;5.30;3.50;;;;;;;0.82;82.47;96702.06;5044334;28;20037;-68
2021/01/27 11:53:04;;;;;;;5.75;3.13;;;;;;;0.84;83.34;96694.44;5039779;28;20041;-68
2021/01/27 11:55:29;;;;;;;3.10;2.55;;;;;;;0.80;82.91;96696.16;5040282;28;20052;-68
2021/01/27 11:57:55;;;;;;;4.03;2.40;;;;;;;0.62;83.81;96697.91;5041521;28;20041;-68
2021/01/27 12:00:21;;;;;;;3.92;2.00;;;;;;;0.42;84.90;96693.75;5037341;28;20043;-69